Time;durP1;ratioP1;P1;durP2;ratioP2;P2;SDS_P1;SDS_P2;PMS_P1;PMS_P2;Temp;Humidity;BMP_temperature;BMP_pressure;BME280_temperature;BME280_humidity;BME280_pressure;Samples;Min_cycle;Max_cycle;Signal;HPM_P1;HPM_P2
2021/03/24 00:02:00;;;;;;;38.40;17.47;;;6.20;97.30;;;;;;4995841;28;20193;-91
2021/03/24 00:04:26;;;;;;;44.80;16.93;;;6.20;97.30;;;;;;4978142;28;20201;-91
2021/03/24 00:06:52;;;;;;;49.87;19.20;;;6.20;97.30;;;;;;4978586;28;20610;-91
2021/03/24 00:22:54;;;;;;;42.57;17.00;;;6.20;97.30;;;;;;5405396;23;20489;-93
2021/03/24 00:25:21;;;;;;;48.57;20.17;;;6.20;97.30;;;;;;5013626;28;20460;-93
2021/03/24 00:27:49;;;;;;;41.03;18.03;;;6.20;97.30;;;;;;5014985;28;20171;-93
2021/03/24 00:30:20;;;;;;;44.47;17.67;;;6.20;97.30;;;;;;5013966;28;20408;-93
2021/03/24 00:32:47;;;;;;;49.23;18.97;;;6.20;97.30;;;;;;5013635;28;20462;-92
2021/03/24 00:35:13;;;;;;;40.50;17.33;;;6.30;97.30;;;;;;5014046;28;20423;-93
2021/03/24 00:37:39;;;;;;;42.80;18.20;;;6.20;97.30;;;;;;5013421;28;20764;-94
2021/03/24 00:54:07;;;;;;;50.63;20.87;;;6.20;97.30;;;;;;5209372;23;20519;-93
2021/03/24 00:56:32;;;;;;;47.80;19.10;;;6.20;97.30;;;;;;5010025;28;20413;-91
2021/03/24 00:58:58;;;;;;;42.60;18.77;;;6.20;97.30;;;;;;4993864;28;20178;-91
2021/03/24 01:01:23;;;;;;;46.57;19.53;;;6.20;97.30;;;;;;4994085;28;20178;-91
2021/03/24 01:03:49;;;;;;;49.33;19.10;;;6.20;97.30;;;;;;4993702;28;20700;-91
2021/03/24 01:06:14;;;;;;;48.73;19.60;;;6.20;97.30;;;;;;4994306;28;20174;-91
2021/03/24 01:08:40;;;;;;;52.20;21.00;;;6.20;97.30;;;;;;4994402;28;20268;-91
2021/03/24 01:11:06;;;;;;;45.67;18.83;;;6.20;97.30;;;;;;4993353;28;20652;-90
2021/03/24 01:13:31;;;;;;;54.73;21.10;;;6.20;97.30;;;;;;4993990;28;20205;-91
2021/03/24 01:15:57;;;;;;;55.83;20.80;;;6.20;97.30;;;;;;4993814;28;20170;-91
2021/03/24 01:18:24;;;;;;;49.97;19.53;;;6.20;97.30;;;;;;4993835;28;20662;-91
2021/03/24 01:31:58;;;;;;;53.77;20.30;;;6.10;97.30;;;;;;5482027;23;20509;-92
2021/03/24 01:34:24;;;;;;;63.13;22.30;;;6.10;97.30;;;;;;5018428;28;20440;-92
2021/03/24 01:36:49;;;;;;;63.00;22.30;;;6.10;97.30;;;;;;5013066;28;20193;-92
2021/03/24 01:39:15;;;;;;;56.57;20.20;;;6.10;97.30;;;;;;5014377;28;20288;-92
2021/03/24 01:41:41;;;;;;;51.83;20.27;;;6.10;97.30;;;;;;5013849;28;20185;-93
2021/03/24 01:44:06;;;;;;;52.83;21.47;;;6.10;97.30;;;;;;5012636;28;20205;-92
2021/03/24 01:46:39;;;;;;;56.43;20.67;;;6.10;97.30;;;;;;5013040;28;20231;-92
2021/03/24 01:49:19;;;;;;;53.93;21.20;;;6.10;97.30;;;;;;5013079;28;20224;-93
2021/03/24 01:52:10;;;;;;;57.40;20.50;;;6.10;97.30;;;;;;5013872;28;21000;-93
2021/03/24 01:54:39;;;;;;;59.53;22.17;;;6.00;97.30;;;;;;5015436;28;20858;-92
2021/03/24 01:57:18;;;;;;;58.20;20.70;;;6.00;97.30;;;;;;5016528;28;20464;-92
2021/03/24 02:57:01;;;;;;;59.73;21.87;;;5.80;97.30;;;;;;5015347;28;20573;-93
2021/03/24 02:59:27;;;;;;;51.53;21.23;;;5.80;97.30;;;;;;5015442;28;20412;-93
2021/03/24 03:02:03;;;;;;;63.30;23.10;;;5.80;97.30;;;;;;5018164;28;20440;-93
2021/03/24 03:04:51;;;;;;;56.90;22.87;;;5.80;97.30;;;;;;5012881;28;20533;-93
2021/03/24 03:07:22;;;;;;;64.50;22.57;;;5.80;97.30;;;;;;5015777;28;20432;-92
2021/03/24 03:10:03;;;;;;;59.00;23.47;;;5.70;97.30;;;;;;5014421;28;20484;-92
2021/03/24 03:12:33;;;;;;;61.90;22.57;;;5.70;97.30;;;;;;5020266;28;20885;-93
2021/03/24 03:15:04;;;;;;;61.10;21.87;;;5.70;97.30;;;;;;5014609;28;20440;-92
2021/03/24 03:17:40;;;;;;;60.47;23.70;;;5.70;97.30;;;;;;5014721;28;20491;-92
2021/03/24 03:20:20;;;;;;;62.90;23.57;;;5.70;97.30;;;;;;5014686;28;20446;-93
2021/03/24 03:22:50;;;;;;;57.03;23.37;;;5.70;97.30;;;;;;5014891;28;21023;-93
2021/03/24 03:25:23;;;;;;;56.10;21.00;;;5.70;97.30;;;;;;5014483;28;20990;-93
2021/03/24 03:27:52;;;;;;;57.70;23.57;;;5.70;97.30;;;;;;5014523;28;20404;-92
2021/03/24 03:30:22;;;;;;;76.10;27.53;;;5.60;97.30;;;;;;5014218;28;20416;-93
2021/03/24 03:32:49;;;;;;;60.30;22.37;;;5.60;97.30;;;;;;5014217;28;20404;-92
2021/03/24 03:35:22;;;;;;;59.20;22.33;;;5.70;97.30;;;;;;5014516;28;20423;-93
2021/03/24 03:37:54;;;;;;;59.00;21.30;;;5.60;97.30;;;;;;5014038;28;21051;-92
2021/03/24 03:40:23;;;;;;;59.20;23.30;;;5.60;97.30;;;;;;5014587;28;20424;-93
2021/03/24 03:42:49;;;;;;;63.67;23.70;;;5.60;97.30;;;;;;5014493;28;20422;-93
2021/03/24 03:45:15;;;;;;;68.87;22.37;;;5.60;97.30;;;;;;5014071;28;20487;-92
2021/03/24 03:47:43;;;;;;;70.27;25.83;;;5.60;97.30;;;;;;5000539;28;20421;-92
2021/03/24 03:50:14;;;;;;;57.90;22.10;;;5.60;97.30;;;;;;4996061;28;20436;-92
2021/03/24 03:53:06;;;;;;;59.37;23.17;;;5.60;97.30;;;;;;4994517;28;20444;-92
2021/03/24 03:55:51;;;;;;;61.10;24.20;;;5.60;97.30;;;;;;4994514;28;20409;-92
2021/03/24 03:58:46;;;;;;;64.10;23.67;;;5.60;97.30;;;;;;4994688;28;20984;-93
2021/03/24 04:01:37;;;;;;;65.40;24.63;;;5.60;97.30;;;;;;4995148;28;20848;-91
2021/03/24 04:04:22;;;;;;;61.93;21.70;;;5.60;97.30;;;;;;4997509;28;20476;-93
2021/03/24 04:06:58;;;;;;;57.20;23.10;;;5.50;97.30;;;;;;4998012;28;20452;-92
2021/03/24 04:09:24;;;;;;;55.77;22.83;;;5.50;97.30;;;;;;4994448;28;20475;-92
2021/03/24 04:11:53;;;;;;;64.37;24.07;;;5.50;97.30;;;;;;4994248;28;20831;-93
2021/03/24 04:14:22;;;;;;;61.30;24.27;;;5.50;97.30;;;;;;4993723;28;20686;-92
2021/03/24 04:16:49;;;;;;;62.97;24.50;;;5.50;97.30;;;;;;4994324;28;20415;-92
2021/03/24 04:19:17;;;;;;;68.27;24.17;;;5.50;97.30;;;;;;4994295;28;20421;-92
2021/03/24 04:21:55;;;;;;;59.20;24.10;;;5.50;97.30;;;;;;4993872;28;20417;-93
2021/03/24 04:24:27;;;;;;;65.60;25.10;;;5.50;97.30;;;;;;4994548;28;20833;-92
2021/03/24 04:26:58;;;;;;;58.03;22.67;;;5.50;97.30;;;;;;4994780;28;20416;-92
2021/03/24 04:29:35;;;;;;;69.27;26.00;;;5.50;97.30;;;;;;4995530;28;20429;-92
2021/03/24 04:32:03;;;;;;;63.63;23.23;;;5.50;97.30;;;;;;4994546;28;20417;-93
2021/03/24 04:34:30;;;;;;;67.43;25.40;;;5.50;97.30;;;;;;4994341;28;20813;-92
2021/03/24 04:37:06;;;;;;;63.77;24.23;;;5.50;97.30;;;;;;4994789;28;20504;-92
2021/03/24 04:40:33;;;;;;;64.10;24.47;;;5.50;97.30;;;;;;4994990;28;20504;-92
2021/03/24 04:43:14;;;;;;;67.70;24.67;;;5.40;97.30;;;;;;4936740;29;20454;-92
2021/03/24 04:46:00;;;;;;;59.60;24.30;;;5.40;97.30;;;;;;4991410;28;20461;-92
2021/03/24 04:48:35;;;;;;;70.33;24.57;;;5.40;97.30;;;;;;4994980;28;20409;-92
2021/03/24 04:51:14;;;;;;;57.77;22.67;;;5.40;97.30;;;;;;4995781;28;20405;-92
2021/03/24 04:53:42;;;;;;;69.10;24.70;;;5.40;97.30;;;;;;4994973;28;20444;-92
2021/03/24 04:56:11;;;;;;;69.53;23.93;;;5.40;97.30;;;;;;4995075;28;20479;-91
2021/03/24 04:58:43;;;;;;;62.83;25.27;;;5.40;97.30;;;;;;4995332;28;20425;-92
2021/03/24 05:01:18;;;;;;;65.27;25.20;;;5.30;97.30;;;;;;5001084;28;20515;-91
2021/03/24 05:03:46;;;;;;;63.60;23.50;;;5.40;97.30;;;;;;4997350;28;20455;-92
2021/03/24 05:06:25;;;;;;;66.13;24.10;;;5.40;97.30;;;;;;5018491;28;20412;-92
2021/03/24 05:08:51;;;;;;;70.10;24.73;;;5.30;97.30;;;;;;5013351;28;20424;-92
2021/03/24 05:11:29;;;;;;;71.77;26.30;;;5.30;97.30;;;;;;5000224;28;20427;-92
2021/03/24 05:14:01;;;;;;;64.37;24.77;;;5.30;97.30;;;;;;5008249;28;20204;-91
2021/03/24 05:16:37;;;;;;;57.70;23.23;;;5.30;97.30;;;;;;4996377;28;20432;-92
2021/03/24 05:19:03;;;;;;;70.50;25.30;;;5.30;97.30;;;;;;5007098;28;20431;-93
2021/03/24 05:22:14;;;;;;;68.27;25.50;;;5.30;97.30;;;;;;5014876;28;20424;-92
2021/03/24 05:24:41;;;;;;;69.60;23.60;;;5.40;97.30;;;;;;5013324;28;20530;-93
2021/03/24 05:27:16;;;;;;;65.97;25.10;;;5.40;97.30;;;;;;5016082;28;20412;-93
2021/03/24 05:29:46;;;;;;;72.00;25.10;;;5.40;97.30;;;;;;5018973;28;20420;-93
2021/03/24 05:32:19;;;;;;;67.50;24.60;;;5.40;97.30;;;;;;5019321;28;20404;-93
2021/03/24 05:34:50;;;;;;;64.23;25.30;;;5.40;97.30;;;;;;4998540;28;20444;-92
2021/03/24 05:37:16;;;;;;;64.90;25.90;;;5.40;97.30;;;;;;4999156;28;20415;-92
2021/03/24 05:39:43;;;;;;;66.97;26.60;;;5.40;97.30;;;;;;4997380;28;20569;-92
2021/03/24 05:42:37;;;;;;;63.53;24.63;;;5.40;97.30;;;;;;4998865;28;20421;-92
2021/03/24 05:45:19;;;;;;;67.87;26.03;;;5.40;97.30;;;;;;4996921;28;20531;-92
2021/03/24 05:48:04;;;;;;;64.87;24.33;;;5.40;97.30;;;;;;4998703;28;20413;-92
2021/03/24 05:50:36;;;;;;;74.80;25.83;;;5.40;97.30;;;;;;4999119;28;20949;-92
2021/03/24 05:53:22;;;;;;;69.73;25.57;;;5.40;97.30;;;;;;4999015;28;20448;-92
2021/03/24 05:56:19;;;;;;;67.00;24.17;;;5.40;97.30;;;;;;4998278;28;20417;-93
2021/03/24 05:58:57;;;;;;;66.03;25.67;;;5.40;97.30;;;;;;4995195;28;20429;-92
2021/03/24 06:01:34;;;;;;;66.67;25.53;;;5.50;97.30;;;;;;4997949;28;20421;-91
2021/03/24 06:04:08;;;;;;;62.67;25.00;;;5.50;97.30;;;;;;5002776;28;20437;-92
2021/03/24 06:16:12;;;;;;;68.93;27.00;;;5.60;97.30;;;;;;5013647;28;20598;-71
2021/03/24 06:19:02;;;;;;;67.70;25.43;;;5.60;97.30;;;;;;5023771;28;20591;-72
2021/03/24 06:21:50;;;;;;;78.17;25.93;;;5.60;97.30;;;;;;5016153;28;20424;-74
2021/03/24 06:24:33;;;;;;;65.73;23.30;;;5.70;97.30;;;;;;4995269;28;20542;-74
2021/03/24 06:27:08;;;;;;;66.97;25.63;;;5.70;97.30;;;;;;4976403;28;20428;-73
2021/03/24 06:30:06;;;;;;;76.87;28.53;;;5.70;97.30;;;;;;4975895;28;20417;-72
2021/03/24 06:33:16;;;;;;;66.43;24.27;;;5.80;97.30;;;;;;5000135;28;20493;-73
2021/03/24 06:36:03;;;;;;;70.63;26.80;;;5.80;97.30;;;;;;4917072;29;20514;-72
2021/03/24 06:38:53;;;;;;;72.40;26.30;;;5.80;97.30;;;;;;4916913;29;20838;-72
2021/03/24 06:41:35;;;;;;;67.03;24.13;;;5.80;97.30;;;;;;4991327;28;20436;-72
2021/03/24 06:44:16;;;;;;;65.77;25.57;;;5.80;97.30;;;;;;5013053;28;20447;-72
2021/03/24 06:47:04;;;;;;;82.43;27.93;;;5.80;97.30;;;;;;5006840;28;20425;-72
2021/03/24 06:49:39;;;;;;;71.17;24.30;;;5.90;97.30;;;;;;4976075;28;20413;-72
2021/03/24 06:52:36;;;;;;;75.90;27.53;;;5.90;97.30;;;;;;4992106;28;20433;-72
2021/03/24 06:55:20;;;;;;;69.77;25.80;;;6.00;97.30;;;;;;4974779;28;20920;-72
2021/03/24 06:57:56;;;;;;;75.60;25.50;;;6.00;97.30;;;;;;4993205;28;20437;-72
2021/03/24 07:00:24;;;;;;;71.00;25.00;;;6.10;97.30;;;;;;4975342;28;20500;-72
2021/03/24 07:02:55;;;;;;;66.30;25.70;;;6.10;97.30;;;;;;4992984;28;20401;-72
2021/03/24 07:05:59;;;;;;;67.30;24.70;;;6.20;97.30;;;;;;4993053;28;20464;-72
2021/03/24 07:08:30;;;;;;;63.13;25.07;;;6.20;97.30;;;;;;5005914;28;20434;-72
2021/03/24 07:11:25;;;;;;;70.07;26.30;;;6.30;97.30;;;;;;5012248;28;20445;-73
2021/03/24 07:14:35;;;;;;;71.10;25.30;;;6.30;97.30;;;;;;4992622;28;20441;-72
2021/03/24 07:17:19;;;;;;;63.27;24.60;;;6.40;97.30;;;;;;4988005;28;20442;-72
2021/03/24 07:20:06;;;;;;;69.43;25.10;;;6.40;97.30;;;;;;5032114;28;20399;-73
2021/03/24 07:22:55;;;;;;;77.83;26.27;;;6.40;97.30;;;;;;5031670;28;20915;-72
2021/03/24 07:25:21;;;;;;;72.40;26.80;;;6.60;97.30;;;;;;5013393;28;20470;-72
2021/03/24 07:28:08;;;;;;;64.50;25.40;;;6.60;97.30;;;;;;5032444;28;20430;-72
2021/03/24 07:30:55;;;;;;;72.33;26.27;;;6.70;97.30;;;;;;5031381;28;20184;-72
2021/03/24 07:34:04;;;;;;;70.80;26.77;;;6.80;97.30;;;;;;5014337;28;20414;-72
2021/03/24 07:36:51;;;;;;;70.27;27.63;;;6.80;97.30;;;;;;5018413;28;20407;-72
2021/03/24 07:39:20;;;;;;;69.80;26.30;;;6.80;97.30;;;;;;5013765;28;20407;-72
2021/03/24 07:41:54;;;;;;;69.40;26.87;;;6.90;97.30;;;;;;5026220;28;20424;-72
2021/03/24 07:44:35;;;;;;;68.53;25.23;;;6.90;97.30;;;;;;4994062;28;20465;-72
2021/03/24 07:47:19;;;;;;;67.03;26.00;;;6.90;97.30;;;;;;4985408;28;20429;-72
2021/03/24 07:50:09;;;;;;;69.83;26.13;;;7.00;97.30;;;;;;4974585;28;20564;-72
2021/03/24 07:53:10;;;;;;;68.33;26.10;;;7.10;97.30;;;;;;4991814;28;20417;-72
2021/03/24 07:56:08;;;;;;;69.07;25.40;;;7.20;97.30;;;;;;4989770;28;20425;-72
2021/03/24 07:58:58;;;;;;;71.73;25.70;;;7.30;97.30;;;;;;4955346;28;20932;-72
2021/03/24 08:01:24;;;;;;;59.37;24.60;;;7.30;97.30;;;;;;4991386;28;20929;-72
2021/03/24 08:04:11;;;;;;;67.97;26.60;;;7.30;97.30;;;;;;4974400;28;20443;-72
2021/03/24 08:07:02;;;;;;;62.03;25.50;;;7.40;97.30;;;;;;4974433;28;20176;-72
2021/03/24 08:09:28;;;;;;;60.53;26.90;;;7.60;97.30;;;;;;4989491;28;20441;-73
2021/03/24 08:12:21;;;;;;;62.97;25.07;;;7.70;97.30;;;;;;4972506;28;20475;-73
2021/03/24 08:15:17;;;;;;;66.90;25.53;;;7.80;97.30;;;;;;4991310;28;20229;-72
2021/03/24 08:17:51;;;;;;;62.67;25.60;;;7.90;97.30;;;;;;4990710;28;20515;-72
2021/03/24 08:20:25;;;;;;;60.90;24.37;;;8.20;97.30;;;;;;4974018;28;20795;-72
2021/03/24 08:23:15;;;;;;;73.43;23.70;;;8.30;97.30;;;;;;4991388;28;20413;-72
2021/03/24 08:26:02;;;;;;;68.60;28.47;;;8.30;97.30;;;;;;4991316;28;20471;-72
2021/03/24 08:29:06;;;;;;;71.67;27.90;;;8.40;97.20;;;;;;4991251;28;20435;-73
2021/03/24 08:31:44;;;;;;;64.83;26.07;;;8.40;96.90;;;;;;4973698;28;20424;-72
2021/03/24 08:34:40;;;;;;;66.47;26.50;;;8.30;96.70;;;;;;4991339;28;20432;-73
2021/03/24 08:37:34;;;;;;;66.70;27.97;;;8.20;97.30;;;;;;4973334;28;20413;-72
2021/03/24 08:40:19;;;;;;;70.90;27.10;;;8.40;97.30;;;;;;4990954;28;20910;-71
2021/03/24 08:42:48;;;;;;;66.87;25.90;;;8.50;96.80;;;;;;4991172;28;20404;-71
2021/03/24 08:45:37;;;;;;;72.93;26.50;;;8.60;96.80;;;;;;4991349;28;20452;-71
2021/03/24 08:48:08;;;;;;;77.37;28.03;;;8.70;96.20;;;;;;5007690;28;20420;-71
2021/03/24 08:50:40;;;;;;;72.10;26.63;;;8.80;96.20;;;;;;4993121;28;20436;-71
2021/03/24 08:53:33;;;;;;;62.33;25.80;;;9.00;96.30;;;;;;5010905;28;20412;-71
2021/03/24 08:56:37;;;;;;;63.70;26.03;;;9.30;95.70;;;;;;5010454;28;20442;-70
2021/03/24 08:59:27;;;;;;;64.33;26.47;;;9.50;95.10;;;;;;4953451;28;20466;-71
2021/03/24 09:02:30;;;;;;;72.77;29.60;;;9.70;94.40;;;;;;4991956;28;20540;-70
2021/03/24 09:05:09;;;;;;;68.70;27.57;;;9.80;94.30;;;;;;5010523;28;20672;-71
2021/03/24 09:08:06;;;;;;;63.77;28.23;;;9.80;93.50;;;;;;5010891;28;21269;-71
2021/03/24 09:11:01;;;;;;;70.20;27.20;;;9.70;93.10;;;;;;4992575;28;20507;-71
2021/03/24 09:13:32;;;;;;;74.03;30.30;;;9.90;93.20;;;;;;4993107;28;20419;-72
2021/03/24 09:16:04;;;;;;;64.97;27.70;;;10.00;92.40;;;;;;4992987;28;20454;-71
2021/03/24 09:18:41;;;;;;;61.70;26.00;;;10.20;92.10;;;;;;4992646;28;20412;-71
2021/03/24 09:21:27;;;;;;;70.03;27.30;;;10.30;92.40;;;;;;4992590;28;20443;-71
2021/03/24 09:23:56;;;;;;;64.00;26.70;;;10.60;92.30;;;;;;4992999;28;20833;-71
2021/03/24 09:26:29;;;;;;;68.30;28.43;;;10.80;91.10;;;;;;4992386;28;20794;-71
2021/03/24 09:29:19;;;;;;;74.57;30.27;;;10.80;91.40;;;;;;4992821;28;20416;-71
2021/03/24 09:32:16;;;;;;;67.77;28.43;;;10.80;90.60;;;;;;4992673;28;20431;-71
2021/03/24 09:35:18;;;;;;;66.73;26.67;;;11.00;91.40;;;;;;4992805;28;20424;-71
2021/03/24 09:38:02;;;;;;;68.27;27.30;;;11.00;90.80;;;;;;4992750;28;20443;-71
2021/03/24 09:40:33;;;;;;;73.90;29.70;;;11.00;91.00;;;;;;5010301;28;20477;-71
2021/03/24 09:43:02;;;;;;;67.67;29.23;;;10.90;91.00;;;;;;5010455;28;20404;-72
2021/03/24 09:45:31;;;;;;;64.30;28.37;;;11.10;91.50;;;;;;4992631;28;21274;-72
2021/03/24 09:48:03;;;;;;;80.67;31.47;;;11.10;91.20;;;;;;4976936;28;20444;-72
2021/03/24 09:50:47;;;;;;;75.33;32.73;;;11.20;90.50;;;;;;4973259;28;20419;-71
2021/03/24 09:53:16;;;;;;;74.70;31.13;;;11.40;90.50;;;;;;4990781;28;20414;-72
2021/03/24 09:55:59;;;;;;;70.53;29.87;;;11.60;89.80;;;;;;4973072;28;20445;-72
2021/03/24 09:58:27;;;;;;;70.60;31.17;;;11.50;89.40;;;;;;4990302;28;20437;-72
2021/03/24 10:01:27;;;;;;;71.23;32.60;;;11.60;89.50;;;;;;4973128;28;20441;-72
2021/03/24 10:04:12;;;;;;;67.20;30.07;;;11.70;89.40;;;;;;4973046;28;21015;-72
2021/03/24 10:07:06;;;;;;;69.63;30.13;;;11.50;89.00;;;;;;4972807;28;20520;-72
2021/03/24 10:09:42;;;;;;;65.03;30.20;;;11.50;90.00;;;;;;4990736;28;20488;-71
2021/03/24 10:12:20;;;;;;;74.80;31.17;;;11.70;90.70;;;;;;4973225;28;20475;-72
2021/03/24 10:14:52;;;;;;;78.23;31.70;;;12.10;89.90;;;;;;4975776;28;20464;-71
2021/03/24 10:17:25;;;;;;;74.83;34.13;;;12.50;89.20;;;;;;4993804;28;20417;-72
2021/03/24 10:20:02;;;;;;;70.93;31.83;;;12.50;87.30;;;;;;4976113;28;20479;-72
2021/03/24 10:22:42;;;;;;;84.70;33.10;;;12.40;87.80;;;;;;4976106;28;20810;-73
2021/03/24 10:25:14;;;;;;;66.27;29.53;;;12.30;87.50;;;;;;4976054;28;20886;-72
2021/03/24 10:27:47;;;;;;;73.97;31.80;;;12.50;87.90;;;;;;4976202;28;20778;-71
2021/03/24 10:30:12;;;;;;;80.93;32.80;;;12.60;88.30;;;;;;4993707;28;20456;-74
2021/03/24 10:32:44;;;;;;;69.53;32.17;;;12.30;87.40;;;;;;4993835;28;20404;-73
2021/03/24 10:35:32;;;;;;;77.83;32.53;;;12.40;88.10;;;;;;4993701;28;20591;-73
2021/03/24 10:38:19;;;;;;;73.50;32.97;;;12.50;87.80;;;;;;4993499;28;20926;-74
2021/03/24 10:41:02;;;;;;;79.43;33.97;;;12.60;87.30;;;;;;4993442;28;20561;-73
2021/03/24 10:43:34;;;;;;;77.00;33.63;;;12.70;86.50;;;;;;4976013;28;20491;-73
2021/03/24 10:46:21;;;;;;;67.60;32.43;;;13.00;87.20;;;;;;4975461;28;20497;-73
2021/03/24 10:48:57;;;;;;;69.87;33.77;;;13.20;86.60;;;;;;4976019;28;20635;-73
2021/03/24 10:55:11;;;;;;;71.13;32.07;;;13.50;84.80;;;;;;4988667;28;20428;-85
2021/03/24 10:58:40;;;;;;;70.40;33.03;;;13.20;84.60;;;;;;5017294;28;20423;-86
2021/03/24 11:02:01;;;;;;;73.33;35.93;;;13.30;85.30;;;;;;4916788;29;20419;-85
2021/03/24 11:09:11;;;;;;;63.43;30.17;;;13.10;85.30;;;;;;4879342;29;20411;-85
2021/03/24 11:15:41;;;;;;;75.07;33.57;;;13.30;84.10;;;;;;4880420;29;20433;-84
2021/03/24 11:19:00;;;;;;;69.30;32.77;;;13.50;84.20;;;;;;4877913;29;20465;-85
2021/03/24 11:22:29;;;;;;;78.57;31.77;;;13.60;84.60;;;;;;4918172;29;20442;-85
2021/03/24 11:28:43;;;;;;;71.37;31.70;;;13.90;83.60;;;;;;4964781;28;20421;-86
2021/03/24 11:34:40;;;;;;;62.17;30.50;;;14.00;83.10;;;;;;4954751;29;20415;-85
2021/03/24 11:37:50;;;;;;;65.13;31.90;;;14.30;83.10;;;;;;4994454;28;20427;-85
2021/03/24 11:40:21;;;;;;;69.63;31.30;;;14.40;82.00;;;;;;4953549;28;20421;-83
2021/03/24 11:43:00;;;;;;;65.77;32.33;;;14.20;81.40;;;;;;4977898;28;20440;-85
2021/03/24 11:45:36;;;;;;;70.20;30.83;;;14.20;82.20;;;;;;4978281;28;21212;-85
2021/03/24 11:48:07;;;;;;;68.90;30.90;;;14.40;81.50;;;;;;4977450;28;20421;-85
2021/03/24 11:50:55;;;;;;;69.00;31.40;;;14.30;82.00;;;;;;4977832;28;20414;-85
2021/03/24 11:53:45;;;;;;;69.40;31.27;;;14.40;82.30;;;;;;4977920;28;20461;-84
2021/03/24 11:56:51;;;;;;;78.17;32.90;;;14.40;82.00;;;;;;4978796;28;20425;-84
2021/03/24 11:59:48;;;;;;;67.20;31.83;;;14.30;81.40;;;;;;4986742;28;21091;-84
2021/03/24 12:02:46;;;;;;;65.17;31.07;;;14.40;82.00;;;;;;4998103;28;20861;-84
2021/03/24 12:05:27;;;;;;;66.77;31.00;;;14.60;81.80;;;;;;4998261;28;21006;-85
2021/03/24 12:07:58;;;;;;;62.93;29.67;;;15.00;81.40;;;;;;4998254;28;20408;-83
2021/03/24 12:10:31;;;;;;;66.63;29.77;;;15.00;80.60;;;;;;4997982;28;20408;-85
2021/03/24 12:13:10;;;;;;;71.00;31.70;;;15.30;80.40;;;;;;4997634;28;20436;-84
2021/03/24 12:15:37;;;;;;;63.20;30.10;;;15.40;80.20;;;;;;4997694;28;20413;-85
2021/03/24 12:18:18;;;;;;;64.93;31.30;;;15.60;80.20;;;;;;5015090;28;20451;-85
2021/03/24 12:20:52;;;;;;;65.70;32.17;;;15.90;78.90;;;;;;4997691;28;21010;-85
2021/03/24 12:23:23;;;;;;;63.93;32.20;;;15.80;79.60;;;;;;4997980;28;20454;-84
2021/03/24 12:25:52;;;;;;;63.60;31.87;;;15.70;78.70;;;;;;4997818;28;20456;-85
2021/03/24 12:28:34;;;;;;;64.53;30.80;;;15.70;78.50;;;;;;4997761;28;20416;-85
2021/03/24 12:31:30;;;;;;;77.73;34.60;;;15.80;77.80;;;;;;5015045;28;20459;-85
2021/03/24 12:33:59;;;;;;;63.50;28.93;;;15.30;78.30;;;;;;4992271;28;20451;-84
2021/03/24 12:36:30;;;;;;;69.23;32.07;;;15.40;79.80;;;;;;4997222;28;20413;-84
2021/03/24 12:39:05;;;;;;;61.20;29.83;;;15.70;79.10;;;;;;5013105;28;20470;-84
2021/03/24 12:41:38;;;;;;;65.80;31.30;;;16.00;78.90;;;;;;5000799;28;20504;-84
2021/03/24 12:44:21;;;;;;;64.43;31.17;;;16.00;78.50;;;;;;4994558;28;20998;-85
2021/03/24 12:47:04;;;;;;;68.77;31.90;;;16.10;77.40;;;;;;5014397;28;20397;-84
2021/03/24 12:49:35;;;;;;;74.97;35.13;;;16.10;77.00;;;;;;4988098;28;20460;-80
2021/03/24 12:52:32;;;;;;;65.23;31.73;;;15.80;77.70;;;;;;4975532;28;20515;-83
2021/03/24 12:54:58;;;;;;;69.33;32.00;;;15.90;78.00;;;;;;4956440;28;20442;-82
2021/03/24 12:57:52;;;;;;;81.37;38.67;;;15.60;78.00;;;;;;4957672;28;20457;-82
2021/03/24 13:00:39;;;;;;;75.30;35.90;;;15.90;78.40;;;;;;5012826;28;20408;-83
2021/03/24 13:03:05;;;;;;;64.73;32.47;;;16.10;77.90;;;;;;4995200;28;20523;-83
2021/03/24 13:05:48;;;;;;;70.73;33.93;;;15.90;76.90;;;;;;4995043;28;20546;-83
2021/03/24 13:08:24;;;;;;;74.03;35.20;;;16.10;78.30;;;;;;4995381;28;20173;-82
2021/03/24 13:10:59;;;;;;;66.40;30.57;;;16.30;77.80;;;;;;4994918;28;20787;-80
2021/03/24 13:13:43;;;;;;;70.37;31.60;;;16.00;77.40;;;;;;4994611;28;20420;-83
2021/03/24 13:16:15;;;;;;;67.43;32.20;;;16.30;78.00;;;;;;4995248;28;20415;-83
2021/03/24 13:18:48;;;;;;;69.63;34.40;;;16.20;76.60;;;;;;4994716;28;20507;-84
2021/03/24 13:21:41;;;;;;;64.63;31.10;;;16.50;76.80;;;;;;4994996;28;20440;-83
2021/03/24 13:24:42;;;;;;;70.43;34.20;;;16.70;76.30;;;;;;5012262;28;20420;-84
2021/03/24 13:27:35;;;;;;;71.97;34.77;;;16.60;76.30;;;;;;4995075;28;20500;-83
2021/03/24 13:30:20;;;;;;;80.57;40.20;;;16.00;77.40;;;;;;4994911;28;20446;-83
2021/03/24 13:32:59;;;;;;;90.23;41.10;;;16.40;77.20;;;;;;5012181;28;20964;-82
2021/03/24 13:35:39;;;;;;;69.17;33.77;;;16.80;76.40;;;;;;4994995;28;20494;-83
2021/03/24 13:38:24;;;;;;;67.03;30.47;;;16.60;74.70;;;;;;4994547;28;20499;-83
2021/03/24 13:40:50;;;;;;;68.23;31.63;;;16.40;75.50;;;;;;5010052;28;20941;-83
2021/03/24 13:43:49;;;;;;;61.17;28.70;;;16.60;76.20;;;;;;5012157;28;20777;-84
2021/03/24 13:46:27;;;;;;;57.87;28.97;;;16.90;75.70;;;;;;5010059;28;20456;-83
2021/03/24 13:48:59;;;;;;;62.13;30.77;;;17.30;74.60;;;;;;4994965;28;20393;-83
2021/03/24 13:51:30;;;;;;;67.03;32.07;;;17.60;74.90;;;;;;4978564;28;20511;-84
2021/03/24 13:54:10;;;;;;;63.07;29.80;;;17.50;74.30;;;;;;4996267;28;20397;-83
2021/03/24 13:56:36;;;;;;;61.20;30.13;;;16.90;74.40;;;;;;4996390;28;20935;-84
2021/03/24 13:59:25;;;;;;;53.30;26.87;;;16.80;75.20;;;;;;4994849;28;20421;-84
2021/03/24 14:01:53;;;;;;;54.50;27.40;;;17.10;74.10;;;;;;4986774;23;20241;-74
2021/03/24 14:04:37;;;;;;;60.73;30.73;;;17.20;74.40;;;;;;4977223;28;20417;-74
2021/03/24 14:07:35;;;;;;;56.40;26.50;;;17.30;74.30;;;;;;4987708;28;20435;-74
2021/03/24 14:10:05;;;;;;;57.50;28.53;;;17.40;74.40;;;;;;4987234;28;20417;-74
2021/03/24 14:12:45;;;;;;;57.73;28.47;;;17.30;74.60;;;;;;4975715;28;20449;-74
2021/03/24 14:15:30;;;;;;;62.90;28.90;;;17.40;75.10;;;;;;4973989;28;20961;-74
2021/03/24 14:18:31;;;;;;;61.23;28.13;;;17.50;74.30;;;;;;4975418;28;20465;-74
2021/03/24 14:21:19;;;;;;;56.43;26.13;;;17.70;74.50;;;;;;4968073;28;20454;-75
2021/03/24 14:24:20;;;;;;;56.17;28.10;;;17.60;73.40;;;;;;4972264;28;20433;-75
2021/03/24 14:26:51;;;;;;;53.83;26.60;;;17.90;73.70;;;;;;4961238;28;20449;-75
2021/03/24 14:29:51;;;;;;;57.93;28.23;;;18.00;72.50;;;;;;4973976;28;20422;-74
2021/03/24 14:32:26;;;;;;;63.30;29.20;;;18.10;72.60;;;;;;4972775;28;20482;-74
2021/03/24 14:35:22;;;;;;;60.30;29.73;;;18.30;72.70;;;;;;4967450;28;20404;-74
2021/03/24 14:37:47;;;;;;;57.23;29.27;;;18.30;72.00;;;;;;4968934;28;20429;-75
2021/03/24 14:40:13;;;;;;;59.10;28.37;;;18.30;72.40;;;;;;4973116;28;20410;-74
2021/03/24 14:42:54;;;;;;;55.50;28.90;;;18.00;72.90;;;;;;4975034;28;20179;-74
2021/03/24 14:45:45;;;;;;;60.57;29.00;;;18.30;72.70;;;;;;4973566;28;20667;-74
2021/03/24 14:48:26;;;;;;;57.73;27.73;;;18.20;72.30;;;;;;4971830;28;20552;-74
2021/03/24 14:50:54;;;;;;;52.67;26.70;;;18.40;72.60;;;;;;4966026;28;20453;-75
2021/03/24 14:53:23;;;;;;;54.00;27.63;;;18.20;72.30;;;;;;4973100;28;20843;-74
2021/03/24 14:55:52;;;;;;;64.80;32.60;;;18.10;72.80;;;;;;4980946;28;20711;-75
2021/03/24 14:58:20;;;;;;;58.67;28.50;;;18.50;72.40;;;;;;4972106;28;20430;-74
2021/03/24 15:00:46;;;;;;;56.80;28.93;;;18.70;72.20;;;;;;4958697;28;20461;-74
2021/03/24 15:03:18;;;;;;;57.00;27.20;;;18.50;71.80;;;;;;4971948;28;20470;-74
2021/03/24 15:05:44;;;;;;;60.53;28.70;;;18.50;71.50;;;;;;4970997;28;20458;-74
2021/03/24 15:08:22;;;;;;;60.37;30.07;;;18.30;71.60;;;;;;4967757;28;20454;-75
2021/03/24 15:11:08;;;;;;;50.00;26.70;;;18.30;72.10;;;;;;4983502;28;20217;-73
2021/03/24 15:13:53;;;;;;;67.80;27.87;;;18.30;71.80;;;;;;4966422;28;20514;-76
2021/03/24 15:16:19;;;;;;;57.20;29.03;;;18.20;71.90;;;;;;4966427;28;20958;-75
2021/03/24 15:19:06;;;;;;;61.20;30.97;;;18.10;72.50;;;;;;4966808;28;20434;-74
2021/03/24 15:22:09;;;;;;;64.90;34.10;;;18.40;72.60;;;;;;4973552;28;20549;-74
2021/03/24 15:24:54;;;;;;;53.00;27.40;;;18.60;71.80;;;;;;4972740;28;20472;-76
2021/03/24 15:27:25;;;;;;;56.17;27.60;;;18.60;71.30;;;;;;4971867;28;21036;-75
2021/03/24 15:30:08;;;;;;;52.50;25.67;;;18.80;71.20;;;;;;4967062;28;20484;-75
2021/03/24 15:33:00;;;;;;;54.10;26.10;;;18.90;70.20;;;;;;4971042;28;20459;-75
2021/03/24 15:35:45;;;;;;;52.60;27.50;;;18.70;70.30;;;;;;4965101;28;20444;-75
2021/03/24 15:38:26;;;;;;;53.43;27.07;;;18.30;71.30;;;;;;4967412;28;20422;-76
2021/03/24 15:41:04;;;;;;;57.53;25.87;;;18.70;71.00;;;;;;4952530;28;20467;-75